Time;durP1;ratioP1;P1;durP2;ratioP2;P2;SDS_P1;SDS_P2;PMS_P1;PMS_P2;Temp;Humidity;BMP_temperature;BMP_pressure;BME280_temperature;BME280_humidity;BME280_pressure;Samples;Min_cycle;Max_cycle;Signal;HPM_P1;HPM_P2
2021/10/28 00:13:17;;;;;;;25.67;10.40;;;;;;;;;;5049162;28;20044;-69
2021/10/28 00:15:53;;;;;;;20.63;10.27;;;;;;;;;;5047298;28;20066;-69
2021/10/28 00:18:27;;;;;;;21.30;10.23;;;;;;;;;;5048299;28;20057;-69
2021/10/28 00:20:56;;;;;;;20.35;9.05;;;;;;;;;;5049698;28;20035;-69
2021/10/28 00:23:23;;;;;;;21.50;7.85;;;;;;;;;;5048617;28;20032;-69
2021/10/28 00:25:49;;;;;;;19.40;7.45;;;;;;;;;;5045427;28;20021;-68
2021/10/28 00:28:15;;;;;;;16.58;7.72;;;;;;;;;;5049315;28;20032;-69
2021/10/28 00:30:41;;;;;;;11.43;6.13;;;;;;;;;;5047720;28;20439;-69
2021/10/28 00:33:07;;;;;;;16.27;6.65;;;;;;;;;;5049623;28;20053;-69
2021/10/28 00:35:34;;;;;;;16.15;7.63;;;;;;;;;;5049892;28;20480;-69
2021/10/28 00:38:02;;;;;;;18.75;7.22;;;;;;;;;;5047568;28;20477;-69
2021/10/28 00:40:28;;;;;;;17.50;7.70;;;;;;;;;;5047579;28;20029;-69
2021/10/28 00:42:55;;;;;;;16.30;7.18;;;;;;;;;;5045870;28;20495;-69
2021/10/28 00:45:25;;;;;;;16.85;7.95;;;;;;;;;;5048272;28;20033;-69
2021/10/28 00:47:51;;;;;;;17.70;6.72;;;;;;;;;;5046879;28;20075;-69
2021/10/28 00:50:17;;;;;;;18.33;7.85;;;;;;;;;;5047069;28;20028;-69
2021/10/28 00:52:43;;;;;;;15.23;7.38;;;;;;;;;;5046111;28;20427;-69
2021/10/28 00:55:09;;;;;;;15.70;8.18;;;;;;;;;;5046923;28;20033;-69
2021/10/28 00:57:36;;;;;;;20.52;8.30;;;;;;;;;;5047580;28;20041;-70
2021/10/28 01:00:04;;;;;;;17.58;7.53;;;;;;;;;;5049871;28;20025;-69
2021/10/28 01:02:30;;;;;;;16.42;7.00;;;;;;;;;;5048327;28;20111;-69
2021/10/28 01:04:56;;;;;;;14.75;6.55;;;;;;;;;;5049923;28;20056;-69
2021/10/28 01:07:22;;;;;;;12.52;6.63;;;;;;;;;;5051084;28;20076;-69
2021/10/28 01:09:48;;;;;;;18.10;8.30;;;;;;;;;;5052458;28;20457;-69
2021/10/28 01:12:14;;;;;;;17.05;6.97;;;;;;;;;;5052084;28;20028;-69
2021/10/28 01:14:41;;;;;;;17.98;7.20;;;;;;;;;;5052467;28;20118;-69
2021/10/28 01:17:07;;;;;;;11.65;6.20;;;;;;;;;;5050806;28;20143;-69
2021/10/28 01:19:33;;;;;;;13.15;6.45;;;;;;;;;;5050149;28;20032;-69
2021/10/28 01:21:59;;;;;;;16.35;6.55;;;;;;;;;;5050729;28;20112;-69
2021/10/28 01:24:25;;;;;;;12.52;6.47;;;;;;;;;;5050573;28;20175;-69
2021/10/28 01:26:51;;;;;;;14.52;6.95;;;;;;;;;;5054490;28;20033;-69
2021/10/28 01:29:17;;;;;;;13.23;6.55;;;;;;;;;;5049905;28;20079;-69
2021/10/28 01:31:43;;;;;;;14.50;6.10;;;;;;;;;;5050604;28;20029;-69
2021/10/28 01:34:09;;;;;;;14.70;5.68;;;;;;;;;;5051261;28;20049;-69
2021/10/28 01:36:35;;;;;;;15.15;5.07;;;;;;;;;;5050574;28;20030;-69
2021/10/28 01:39:13;;;;;;;14.23;5.95;;;;;;;;;;5052639;28;20027;-69
2021/10/28 01:41:39;;;;;;;16.77;6.47;;;;;;;;;;5052040;28;20052;-69
2021/10/28 01:44:05;;;;;;;15.57;6.03;;;;;;;;;;5050224;28;20076;-67
2021/10/28 01:46:31;;;;;;;25.23;7.18;;;;;;;;;;5050292;28;20032;-67
2021/10/28 01:48:58;;;;;;;16.13;5.70;;;;;;;;;;5050318;28;20035;-67
2021/10/28 01:51:24;;;;;;;13.18;5.53;;;;;;;;;;5034783;28;20028;-67
2021/10/28 01:53:50;;;;;;;16.02;5.70;;;;;;;;;;5052568;28;20031;-66
2021/10/28 01:56:16;;;;;;;14.93;5.40;;;;;;;;;;5050059;28;20036;-66
2021/10/28 01:58:42;;;;;;;12.38;5.45;;;;;;;;;;5050080;28;20033;-67
2021/10/28 02:01:08;;;;;;;12.35;5.13;;;;;;;;;;5049833;28;20035;-67
2021/10/28 02:03:35;;;;;;;12.73;5.28;;;;;;;;;;5051039;28;20033;-67
2021/10/28 02:06:01;;;;;;;14.85;6.40;;;;;;;;;;5051815;28;20033;-67
2021/10/28 02:08:27;;;;;;;11.68;5.80;;;;;;;;;;5052213;28;20059;-67
2021/10/28 02:10:54;;;;;;;12.55;5.82;;;;;;;;;;5049907;28;20112;-67
2021/10/28 02:13:20;;;;;;;14.20;5.45;;;;;;;;;;5049701;28;20028;-67
2021/10/28 02:15:46;;;;;;;13.25;5.72;;;;;;;;;;5048996;28;20079;-67
2021/10/28 02:18:12;;;;;;;14.48;5.70;;;;;;;;;;5050459;28;20542;-67
2021/10/28 02:20:39;;;;;;;13.77;5.90;;;;;;;;;;5051646;28;20477;-66
2021/10/28 02:23:05;;;;;;;11.88;5.32;;;;;;;;;;5049781;28;20073;-67
2021/10/28 02:25:32;;;;;;;14.93;5.82;;;;;;;;;;5048907;28;20036;-67
2021/10/28 02:27:59;;;;;;;11.23;5.63;;;;;;;;;;5049272;28;20474;-67
2021/10/28 02:30:25;;;;;;;12.82;5.28;;;;;;;;;;5049860;28;20429;-67
2021/10/28 02:32:52;;;;;;;12.43;5.32;;;;;;;;;;5048464;28;20500;-67
2021/10/28 02:35:18;;;;;;;11.23;4.32;;;;;;;;;;5050436;28;20116;-66
2021/10/28 02:37:44;;;;;;;15.68;5.80;;;;;;;;;;5049050;28;20446;-67
2021/10/28 02:40:11;;;;;;;9.35;4.63;;;;;;;;;;5048771;28;20025;-66
2021/10/28 02:42:37;;;;;;;10.73;5.13;;;;;;;;;;5049300;28;20041;-66
2021/10/28 02:45:04;;;;;;;12.90;5.47;;;;;;;;;;5049818;28;20032;-67
2021/10/28 02:47:30;;;;;;;13.30;4.70;;;;;;;;;;5049830;28;20033;-66
2021/10/28 02:49:57;;;;;;;13.40;5.57;;;;;;;;;;5049231;28;20029;-66
2021/10/28 02:52:23;;;;;;;18.40;6.30;;;;;;;;;;5048785;28;20436;-67
2021/10/28 02:54:49;;;;;;;11.65;5.32;;;;;;;;;;5048949;28;20109;-67
2021/10/28 02:57:15;;;;;;;13.13;5.13;;;;;;;;;;5049960;28;20111;-67
2021/10/28 02:59:41;;;;;;;12.35;5.18;;;;;;;;;;5051053;28;20512;-66
2021/10/28 03:02:07;;;;;;;15.02;5.72;;;;;;;;;;5048214;28;20048;-67
2021/10/28 03:04:33;;;;;;;10.98;5.18;;;;;;;;;;5049953;28;20377;-67
2021/10/28 03:07:00;;;;;;;11.23;5.00;;;;;;;;;;5048807;28;20017;-67
2021/10/28 03:09:27;;;;;;;12.88;5.53;;;;;;;;;;5049001;28;20039;-67
2021/10/28 03:11:58;;;;;;;12.32;5.32;;;;;;;;;;5051742;28;20535;-67
2021/10/28 03:14:43;;;;;;;13.40;5.28;;;;;;;;;;5049354;28;20124;-66
2021/10/28 03:28:12;;;;;;;16.02;5.30;;;;;;;;;;5059704;28;20135;-64
2021/10/28 03:30:38;;;;;;;12.73;5.13;;;;;;;;;;5048039;28;20025;-65
2021/10/28 03:33:06;;;;;;;11.10;5.03;;;;;;;;;;5050482;28;20083;-65
2021/10/28 03:35:32;;;;;;;12.40;4.57;;;;;;;;;;5050756;28;20078;-65
2021/10/28 03:38:08;;;;;;;7.93;4.32;;;;;;;;;;5046776;28;20092;-65
2021/10/28 03:51:34;;;;;;;11.57;5.10;;;;;;;;;;5050686;28;20476;-65
2021/10/28 03:59:31;;;;;;;10.75;3.75;;;;;;;;;;5047362;28;20036;-64
2021/10/28 04:31:27;;;;;;;10.85;4.65;;;;;;;;;;5047526;28;20044;-65
2021/10/28 04:33:53;;;;;;;10.82;4.68;;;;;;;;;;5048611;28;20045;-65
2021/10/28 04:36:19;;;;;;;12.93;5.05;;;;;;;;;;5048136;28;20112;-63
2021/10/28 04:38:45;;;;;;;9.25;4.38;;;;;;;;;;5050461;28;20024;-64
2021/10/28 04:41:11;;;;;;;8.05;3.70;;;;;;;;;;5051669;28;20037;-63
2021/10/28 04:43:37;;;;;;;9.95;4.03;;;;;;;;;;5050952;28;20068;-63
2021/10/28 04:46:03;;;;;;;10.85;4.55;;;;;;;;;;5051196;28;20057;-63
2021/10/28 04:48:29;;;;;;;10.70;4.47;;;;;;;;;;5051243;28;20041;-64
2021/10/28 04:50:56;;;;;;;12.48;4.88;;;;;;;;;;5054929;28;20063;-63
2021/10/28 04:53:23;;;;;;;12.80;4.10;;;;;;;;;;5052623;28;20037;-64
2021/10/28 04:55:49;;;;;;;9.07;3.97;;;;;;;;;;5051002;28;20091;-65
2021/10/28 04:58:15;;;;;;;9.27;4.03;;;;;;;;;;5050751;28;20461;-64
2021/10/28 05:00:41;;;;;;;9.38;4.07;;;;;;;;;;5050756;28;20032;-64
2021/10/28 05:03:07;;;;;;;7.32;3.40;;;;;;;;;;5053211;28;20033;-64
2021/10/28 05:05:33;;;;;;;8.88;4.00;;;;;;;;;;5053619;28;20037;-64
2021/10/28 05:07:59;;;;;;;9.75;4.30;;;;;;;;;;5050126;28;20431;-64
2021/10/28 05:10:25;;;;;;;8.52;4.07;;;;;;;;;;5050773;28;20029;-65
2021/10/28 05:12:51;;;;;;;8.95;4.47;;;;;;;;;;5050606;28;20025;-65
2021/10/28 05:15:17;;;;;;;9.10;4.05;;;;;;;;;;5051087;28;20041;-64
2021/10/28 05:17:43;;;;;;;10.82;4.72;;;;;;;;;;5052690;28;20158;-65
2021/10/28 05:20:09;;;;;;;13.50;5.60;;;;;;;;;;5050832;28;20029;-64
2021/10/28 05:22:35;;;;;;;9.63;4.93;;;;;;;;;;5050543;28;20488;-64
2021/10/28 05:25:01;;;;;;;9.80;4.68;;;;;;;;;;5050179;28;20044;-65
2021/10/28 05:27:27;;;;;;;8.27;4.13;;;;;;;;;;5049682;28;20078;-64
2021/10/28 05:29:53;;;;;;;10.57;4.25;;;;;;;;;;5054471;28;20539;-64
2021/10/28 05:32:19;;;;;;;9.88;5.00;;;;;;;;;;5049832;28;20037;-65
2021/10/28 05:34:48;;;;;;;9.15;3.97;;;;;;;;;;5051396;28;20079;-64
2021/10/28 05:37:14;;;;;;;9.02;4.50;;;;;;;;;;5050064;28;20423;-65
2021/10/28 05:39:40;;;;;;;13.80;5.18;;;;;;;;;;5050346;28;20049;-65
2021/10/28 05:42:06;;;;;;;14.93;4.97;;;;;;;;;;5051587;28;20138;-65
2021/10/28 05:44:32;;;;;;;11.95;5.18;;;;;;;;;;5053381;28;20047;-65
2021/10/28 05:46:58;;;;;;;11.80;4.05;;;;;;;;;;5049999;28;20021;-65
2021/10/28 05:49:27;;;;;;;11.25;4.65;;;;;;;;;;5049934;28;20032;-65
2021/10/28 05:51:53;;;;;;;13.73;5.78;;;;;;;;;;5048854;28;20043;-64
2021/10/28 05:54:19;;;;;;;9.95;4.15;;;;;;;;;;5050790;28;20033;-65
2021/10/28 05:56:45;;;;;;;10.75;5.25;;;;;;;;;;5051237;28;20524;-65
2021/10/28 05:59:11;;;;;;;11.35;5.55;;;;;;;;;;5049747;28;20064;-65
2021/10/28 06:01:38;;;;;;;25.55;10.32;;;;;;;;;;5049246;28;20029;-65
2021/10/28 06:04:05;;;;;;;25.65;13.20;;;;;;;;;;5051249;28;20511;-65
2021/10/28 06:06:31;;;;;;;13.77;6.35;;;;;;;;;;5050070;28;20032;-65
2021/10/28 06:08:58;;;;;;;13.27;5.82;;;;;;;;;;5051189;28;20025;-66
2021/10/28 06:11:24;;;;;;;16.90;5.90;;;;;;;;;;5050249;28;20405;-64
2021/10/28 06:13:51;;;;;;;13.00;5.15;;;;;;;;;;5049182;28;20029;-65
2021/10/28 06:16:17;;;;;;;15.13;5.90;;;;;;;;;;5049578;28;20036;-65
2021/10/28 06:18:43;;;;;;;13.45;6.40;;;;;;;;;;5049240;28;20021;-65
2021/10/28 06:21:10;;;;;;;16.75;7.18;;;;;;;;;;5052113;28;20029;-65
2021/10/28 06:23:37;;;;;;;12.27;5.88;;;;;;;;;;5050947;28;20052;-65
2021/10/28 06:26:03;;;;;;;11.05;4.25;;;;;;;;;;5048523;28;20440;-65
2021/10/28 06:28:29;;;;;;;15.25;6.47;;;;;;;;;;5047349;28;20033;-65
2021/10/28 06:30:55;;;;;;;15.65;6.72;;;;;;;;;;5049304;28;20496;-65
2021/10/28 06:33:24;;;;;;;16.30;7.82;;;;;;;;;;5049936;28;20053;-63
2021/10/28 06:35:50;;;;;;;15.73;6.45;;;;;;;;;;5052161;28;20021;-63
2021/10/28 06:38:16;;;;;;;13.18;6.53;;;;;;;;;;5048158;28;20040;-63
2021/10/28 06:40:42;;;;;;;16.00;7.68;;;;;;;;;;5048777;28;20427;-61
2021/10/28 06:43:08;;;;;;;18.13;7.65;;;;;;;;;;5048656;28;20102;-61
2021/10/28 06:45:36;;;;;;;15.00;7.35;;;;;;;;;;5047823;28;20053;-63
2021/10/28 06:48:02;;;;;;;12.50;6.15;;;;;;;;;;5051446;28;20092;-63
2021/10/28 06:50:33;;;;;;;14.55;6.35;;;;;;;;;;5050733;28;20136;-61
2021/10/28 06:53:09;;;;;;;12.55;6.47;;;;;;;;;;5048493;28;20028;-64
2021/10/28 07:03:34;;;;;;;14.75;6.13;;;;;;;;;;5044521;28;20160;-64
2021/10/28 07:06:04;;;;;;;13.65;6.05;;;;;;;;;;5049919;28;20552;-63
2021/10/28 07:08:31;;;;;;;11.32;5.68;;;;;;;;;;5050749;28;20025;-63
2021/10/28 07:10:59;;;;;;;17.88;7.30;;;;;;;;;;5047841;28;20027;-63
2021/10/28 07:13:29;;;;;;;17.35;5.38;;;;;;;;;;5048075;28;20017;-64
2021/10/28 07:16:00;;;;;;;19.73;8.55;;;;;;;;;;5048377;28;20108;-64
2021/10/28 07:26:49;;;;;;;14.80;8.55;;;;;;;;;;5050870;28;20479;-63
2021/10/28 07:34:47;;;;;;;10.20;3.75;;;;;;;;;;5048834;28;20049;-63
2021/10/28 08:05:03;;;;;;;6.75;2.88;;;;;;;;;;5048858;28;20102;-63
2021/10/28 08:18:47;;;;;;;9.70;3.30;;;;;;;;;;5036535;28;20028;-63
2021/10/28 08:24:03;;;;;;;6.47;4.35;;;;;;;;;;5054104;28;20465;-62
2021/10/28 08:29:22;;;;;;;10.07;4.05;;;;;;;;;;5051877;28;20082;-63
2021/10/28 08:31:52;;;;;;;7.10;3.88;;;;;;;;;;5051074;28;20079;-62
2021/10/28 08:34:21;;;;;;;8.77;4.20;;;;;;;;;;5052327;28;20098;-62
2021/10/28 08:36:51;;;;;;;7.47;4.20;;;;;;;;;;5051137;28;20029;-62
2021/10/28 08:39:18;;;;;;;8.80;5.22;;;;;;;;;;5052151;28;20049;-62
2021/10/28 08:41:45;;;;;;;8.70;5.18;;;;;;;;;;5053548;28;20434;-62
2021/10/28 08:44:14;;;;;;;11.07;4.80;;;;;;;;;;5050983;28;20040;-62
2021/10/28 08:46:44;;;;;;;9.20;5.22;;;;;;;;;;5050761;28;20021;-62
2021/10/28 08:52:20;;;;;;;11.73;4.60;;;;;;;;;;5050830;28;20389;-62
2021/10/28 09:19:33;;;;;;;9.80;4.65;;;;;;;;;;5053146;28;20477;-62
2021/10/28 09:28:16;;;;;;;7.40;3.78;;;;;;;;;;5049827;28;20036;-62
2021/10/28 09:30:57;;;;;;;9.02;4.25;;;;;;;;;;5050419;28;20025;-61
2021/10/28 09:33:40;;;;;;;14.30;4.82;;;;;;;;;;5051206;28;20052;-61
2021/10/28 09:44:42;;;;;;;7.47;2.20;;;;;;;;;;5051776;28;20477;-67
2021/10/28 09:47:32;;;;;;;4.35;1.80;;;;;;;;;;5049084;28;20082;-67
2021/10/28 09:50:09;;;;;;;5.32;2.35;;;;;;;;;;5049961;28;20044;-67
2021/10/28 09:52:36;;;;;;;8.17;3.20;;;;;;;;;;5049690;28;20056;-67
2021/10/28 09:58:02;;;;;;;7.57;3.00;;;;;;;;;;5049508;28;20036;-67
2021/10/28 10:00:39;;;;;;;7.65;3.13;;;;;;;;;;5034355;28;20446;-66
2021/10/28 10:03:20;;;;;;;6.97;3.20;;;;;;;;;;5051751;28;20063;-66
2021/10/28 10:05:47;;;;;;;5.70;2.47;;;;;;;;;;5052308;28;20441;-66
2021/10/28 10:08:14;;;;;;;7.95;2.00;;;;;;;;;;5049070;28;20386;-68
2021/10/28 10:10:40;;;;;;;7.05;1.83;;;;;;;;;;5049570;28;20032;-68
2021/10/28 10:13:06;;;;;;;3.20;1.60;;;;;;;;;;5049135;28;20029;-66
2021/10/28 10:15:32;;;;;;;2.63;1.60;;;;;;;;;;5047521;28;20075;-66
2021/10/28 10:18:01;;;;;;;3.35;1.30;;;;;;;;;;5049785;28;20027;-69
2021/10/28 10:20:50;;;;;;;3.80;1.67;;;;;;;;;;5048519;28;20048;-68
2021/10/28 10:26:06;;;;;;;4.68;1.83;;;;;;;;;;5043347;28;20032;-70
2021/10/28 12:28:15;;;;;;;4.50;1.98;;;;;;;;;;5030080;28;20032;-63
2021/10/28 12:44:58;;;;;;;6.60;2.13;;;;;;;;;;5050307;28;20055;-63
2021/10/28 13:55:32;;;;;;;5.85;2.58;;;;;;;;;;5049774;28;20446;-63
2021/10/28 15:29:07;;;;;;;21.48;11.15;;;;;;;;;;5046189;28;20446;-64
2021/10/28 15:32:07;;;;;;;12.40;6.97;;;;;;;;;;5046790;28;20025;-63
2021/10/28 15:37:10;;;;;;;15.00;6.15;;;;;;;;;;5043221;28;20032;-64
2021/10/28 16:22:29;;;;;;;21.30;9.95;;;;;;;;;;5045886;28;20043;-64
2021/10/28 16:24:55;;;;;;;23.52;9.10;;;;;;;;;;5045875;28;20543;-64
2021/10/28 16:27:21;;;;;;;20.58;8.85;;;;;;;;;;5050456;28;20516;-63
2021/10/28 16:29:47;;;;;;;20.10;8.88;;;;;;;;;;5036213;28;20120;-64
2021/10/28 16:32:14;;;;;;;16.65;8.60;;;;;;;;;;5040938;28;20039;-63
2021/10/28 16:34:41;;;;;;;15.20;7.15;;;;;;;;;;5045995;28;20029;-64
2021/10/28 16:37:07;;;;;;;28.70;9.65;;;;;;;;;;5053835;28;20032;-66
2021/10/28 16:39:33;;;;;;;16.73;8.05;;;;;;;;;;5046535;28;20022;-66
2021/10/28 16:41:59;;;;;;;16.70;8.00;;;;;;;;;;5052962;28;20025;-66
2021/10/28 16:44:26;;;;;;;22.48;10.18;;;;;;;;;;5051750;28;20032;-67
2021/10/28 16:46:53;;;;;;;17.55;9.20;;;;;;;;;;5049943;28;20017;-67
2021/10/28 16:49:21;;;;;;;17.45;9.50;;;;;;;;;;5041368;28;20020;-66
2021/10/28 16:51:47;;;;;;;31.47;16.70;;;;;;;;;;5049711;28;20024;-67
2021/10/28 16:54:17;;;;;;;31.10;17.00;;;;;;;;;;5051982;28;20254;-66
2021/10/28 16:56:43;;;;;;;36.67;17.85;;;;;;;;;;5057611;28;20043;-67
2021/10/28 16:59:09;;;;;;;40.92;25.33;;;;;;;;;;5050152;28;20104;-65
2021/10/28 17:01:35;;;;;;;38.47;22.20;;;;;;;;;;5034876;28;20029;-66
2021/10/28 17:04:03;;;;;;;34.10;20.10;;;;;;;;;;5052194;28;20033;-66
2021/10/28 17:06:30;;;;;;;29.02;18.02;;;;;;;;;;5052822;28;20614;-67
2021/10/28 17:08:57;;;;;;;29.45;17.08;;;;;;;;;;5053227;28;20025;-67
2021/10/28 17:11:23;;;;;;;24.02;13.52;;;;;;;;;;5052588;28;20029;-66
2021/10/28 17:13:49;;;;;;;28.00;11.82;;;;;;;;;;5051110;28;20451;-65
2021/10/28 17:16:15;;;;;;;25.52;13.38;;;;;;;;;;5052697;28;20025;-66
2021/10/28 17:18:41;;;;;;;28.08;12.95;;;;;;;;;;5051799;28;20029;-66
2021/10/28 17:21:07;;;;;;;24.92;13.73;;;;;;;;;;5051984;28;20051;-66
2021/10/28 17:23:38;;;;;;;28.98;15.35;;;;;;;;;;5052280;28;20152;-66
2021/10/28 17:26:04;;;;;;;24.40;12.93;;;;;;;;;;5051433;28;20041;-66
2021/10/28 17:28:34;;;;;;;24.02;12.45;;;;;;;;;;5052023;28;20103;-66
2021/10/28 17:31:01;;;;;;;38.92;16.67;;;;;;;;;;5051792;28;20021;-66
2021/10/28 17:33:27;;;;;;;105.32;38.20;;;;;;;;;;5051238;28;20072;-66
2021/10/28 17:35:54;;;;;;;228.98;74.28;;;;;;;;;;5051110;28;20024;-66
2021/10/28 17:38:20;;;;;;;135.35;49.63;;;;;;;;;;5051325;28;20028;-66
2021/10/28 17:40:47;;;;;;;62.95;28.90;;;;;;;;;;5051741;28;20021;-65
2021/10/28 17:43:14;;;;;;;37.38;17.65;;;;;;;;;;5049219;28;20824;-67
2021/10/28 17:45:41;;;;;;;35.75;18.23;;;;;;;;;;5051000;28;20031;-66
2021/10/28 17:48:08;;;;;;;30.45;16.73;;;;;;;;;;5049627;28;20177;-63
2021/10/28 17:50:34;;;;;;;62.58;27.63;;;;;;;;;;5052763;28;20013;-64
2021/10/28 17:53:00;;;;;;;42.65;22.15;;;;;;;;;;5051214;28;20021;-62
2021/10/28 17:55:26;;;;;;;62.58;32.15;;;;;;;;;;5050118;28;20032;-63
2021/10/28 17:57:52;;;;;;;63.17;34.35;;;;;;;;;;5049702;28;20400;-62
2021/10/28 18:00:20;;;;;;;50.17;26.88;;;;;;;;;;5051076;28;20064;-63
2021/10/28 18:02:46;;;;;;;37.38;21.35;;;;;;;;;;5053187;28;20056;-64
2021/10/28 18:05:13;;;;;;;27.33;14.48;;;;;;;;;;5050069;28;20407;-63
2021/10/28 18:07:39;;;;;;;35.55;19.23;;;;;;;;;;5050990;28;20021;-63
2021/10/28 18:10:05;;;;;;;37.13;18.98;;;;;;;;;;5050854;28;20029;-63
2021/10/28 18:12:32;;;;;;;22.13;10.30;;;;;;;;;;5049229;28;20385;-63
2021/10/28 18:14:58;;;;;;;31.45;11.80;;;;;;;;;;5051420;28;20025;-64
2021/10/28 18:17:25;;;;;;;28.60;16.30;;;;;;;;;;5049481;28;20033;-64
2021/10/28 18:19:51;;;;;;;45.85;26.55;;;;;;;;;;5049740;28;20092;-66
2021/10/28 18:22:17;;;;;;;59.95;35.85;;;;;;;;;;5049624;28;20024;-64
2021/10/28 18:24:43;;;;;;;45.00;25.20;;;;;;;;;;5049901;28;20056;-63
2021/10/28 18:27:09;;;;;;;48.10;27.40;;;;;;;;;;5051453;28;20021;-63
2021/10/28 18:29:36;;;;;;;49.22;25.05;;;;;;;;;;5049802;28;20124;-63
2021/10/28 18:32:02;;;;;;;42.90;23.42;;;;;;;;;;5048969;28;20111;-63
2021/10/28 18:34:28;;;;;;;53.58;29.13;;;;;;;;;;5050262;28;20496;-64
2021/10/28 18:36:54;;;;;;;57.40;31.30;;;;;;;;;;5050568;28;20040;-63
2021/10/28 18:39:21;;;;;;;53.40;31.40;;;;;;;;;;5049664;28;20461;-62
2021/10/28 18:41:47;;;;;;;64.22;37.55;;;;;;;;;;5051216;28;20025;-62
2021/10/28 18:44:14;;;;;;;73.35;39.92;;;;;;;;;;5048739;28;20395;-63
2021/10/28 18:46:40;;;;;;;83.93;48.03;;;;;;;;;;5048713;28;20021;-62
2021/10/28 18:49:07;;;;;;;86.18;47.88;;;;;;;;;;5048891;28;20029;-62
2021/10/28 18:51:34;;;;;;;154.57;77.23;;;;;;;;;;5049587;28;20022;-64
2021/10/28 18:54:01;;;;;;;150.63;77.25;;;;;;;;;;5051134;28;20107;-64
2021/10/28 18:56:28;;;;;;;77.15;44.67;;;;;;;;;;5049200;28;20083;-64
2021/10/28 18:58:54;;;;;;;82.60;39.92;;;;;;;;;;5047104;28;20033;-63
2021/10/28 19:01:20;;;;;;;64.18;33.00;;;;;;;;;;5050263;28;20163;-63
2021/10/28 19:03:46;;;;;;;49.80;25.17;;;;;;;;;;5047655;28;20564;-65
2021/10/28 19:06:13;;;;;;;36.42;19.23;;;;;;;;;;5050209;28;20021;-63
2021/10/28 19:08:40;;;;;;;33.25;15.77;;;;;;;;;;5046985;28;20480;-63
2021/10/28 19:11:07;;;;;;;28.80;14.45;;;;;;;;;;5047365;28;20025;-63
2021/10/28 19:13:34;;;;;;;34.88;18.95;;;;;;;;;;5048736;28;20573;-63
2021/10/28 19:16:00;;;;;;;34.95;19.75;;;;;;;;;;5049483;28;20590;-63
2021/10/28 19:18:26;;;;;;;46.50;24.33;;;;;;;;;;5049481;28;20040;-63
2021/10/28 19:20:52;;;;;;;54.13;29.30;;;;;;;;;;5049173;28;20028;-63
2021/10/28 19:23:18;;;;;;;28.35;15.05;;;;;;;;;;5050105;28;20037;-63
2021/10/28 19:25:45;;;;;;;29.50;16.58;;;;;;;;;;5048570;28;20033;-63
2021/10/28 19:28:11;;;;;;;41.90;20.35;;;;;;;;;;5046974;28;20143;-63
2021/10/28 19:33:31;;;;;;;74.97;36.10;;;;;;;;;;5048639;28;20431;-63
2021/10/28 19:35:58;;;;;;;77.30;41.22;;;;;;;;;;5049051;28;20033;-63
2021/10/28 19:41:11;;;;;;;64.63;34.72;;;;;;;;;;5049619;28;20032;-63
2021/10/28 19:46:22;;;;;;;72.18;36.67;;;;;;;;;;5049682;28;20057;-63
2021/10/28 19:48:48;;;;;;;70.03;37.67;;;;;;;;;;5046766;28;20026;-63
2021/10/28 19:51:15;;;;;;;88.40;40.55;;;;;;;;;;5048003;28;20045;-63
2021/10/28 19:53:41;;;;;;;74.35;40.70;;;;;;;;;;5049348;28;20052;-63
2021/10/28 19:56:09;;;;;;;59.10;30.67;;;;;;;;;;5049659;28;20111;-63
2021/10/28 19:58:48;;;;;;;48.13;25.13;;;;;;;;;;5048609;28;20031;-63
2021/10/28 20:06:57;;;;;;;55.30;29.30;;;;;;;;;;5042877;28;20522;-64
2021/10/28 20:20:41;;;;;;;38.42;19.92;;;;;;;;;;5046446;28;20035;-63
2021/10/28 20:23:08;;;;;;;42.05;19.88;;;;;;;;;;5047194;28;20131;-63
2021/10/28 20:25:34;;;;;;;41.05;21.38;;;;;;;;;;5048767;28;20021;-63
2021/10/28 20:28:03;;;;;;;40.97;21.77;;;;;;;;;;5047717;28;20033;-63
2021/10/28 20:30:30;;;;;;;41.53;19.85;;;;;;;;;;5042879;28;20108;-63
2021/10/28 20:32:57;;;;;;;37.80;19.65;;;;;;;;;;5049901;28;20071;-63
2021/10/28 20:37:49;;;;;;;28.10;13.52;;;;;;;;;;5046483;28;20037;-63
2021/10/28 20:40:16;;;;;;;34.03;16.70;;;;;;;;;;5046996;28;20122;-63
2021/10/28 20:42:47;;;;;;;37.45;16.08;;;;;;;;;;5044495;28;20480;-63
2021/10/28 20:45:15;;;;;;;28.42;14.93;;;;;;;;;;5047167;28;20025;-63
2021/10/28 20:47:42;;;;;;;24.25;13.13;;;;;;;;;;5046749;28;20039;-63
2021/10/28 20:50:11;;;;;;;27.97;12.63;;;;;;;;;;5045798;28;20573;-63
2021/10/28 20:52:37;;;;;;;35.00;17.85;;;;;;;;;;5046924;28;20290;-63
2021/10/28 20:55:03;;;;;;;87.85;41.40;;;;;;;;;;5045894;28;20052;-63
2021/10/28 20:57:30;;;;;;;31.95;16.13;;;;;;;;;;5046598;28;20025;-63
2021/10/28 20:59:55;;;;;;;31.58;16.40;;;;;;;;;;5050626;28;20137;-63
2021/10/28 21:02:21;;;;;;;41.33;19.27;;;;;;;;;;5046342;28;20115;-63
2021/10/28 21:04:48;;;;;;;56.40;25.23;;;;;;;;;;5046990;28;20032;-63
2021/10/28 21:07:14;;;;;;;72.57;34.53;;;;;;;;;;5045775;28;20065;-63
2021/10/28 21:09:40;;;;;;;44.00;21.95;;;;;;;;;;5046807;28;20030;-63
2021/10/28 21:12:06;;;;;;;43.05;19.10;;;;;;;;;;5049519;28;20036;-63
2021/10/28 21:14:32;;;;;;;49.35;22.58;;;;;;;;;;5047463;28;20025;-63
2021/10/28 21:16:58;;;;;;;40.15;19.95;;;;;;;;;;5047135;28;20080;-63
2021/10/28 21:19:24;;;;;;;39.75;17.52;;;;;;;;;;5046990;28;20013;-63
2021/10/28 21:21:53;;;;;;;28.25;14.82;;;;;;;;;;5048232;28;20024;-63
2021/10/28 21:24:20;;;;;;;37.60;15.35;;;;;;;;;;5051602;28;20509;-63
2021/10/28 21:26:46;;;;;;;33.17;14.70;;;;;;;;;;5052774;28;20362;-63
2021/10/28 21:29:12;;;;;;;34.13;15.57;;;;;;;;;;5050628;28;20036;-63
2021/10/28 21:31:39;;;;;;;30.15;13.77;;;;;;;;;;5051791;28;20029;-63
2021/10/28 21:34:05;;;;;;;20.25;9.43;;;;;;;;;;5049948;28;20489;-63
2021/10/28 21:36:31;;;;;;;22.38;8.10;;;;;;;;;;5051117;28;20024;-64
2021/10/28 21:38:57;;;;;;;41.97;18.15;;;;;;;;;;5053513;28;20036;-63
2021/10/28 21:41:23;;;;;;;27.15;12.07;;;;;;;;;;5050707;28;20029;-63
2021/10/28 21:43:50;;;;;;;25.45;12.18;;;;;;;;;;5049664;28;20063;-63
2021/10/28 21:46:20;;;;;;;22.73;10.32;;;;;;;;;;5050163;28;20052;-63
2021/10/28 21:48:47;;;;;;;14.90;6.78;;;;;;;;;;5048958;28;20097;-64
2021/10/28 21:51:14;;;;;;;14.55;6.00;;;;;;;;;;5052306;28;20024;-63
2021/10/28 21:53:42;;;;;;;47.70;23.98;;;;;;;;;;5051443;28;20083;-62
2021/10/28 22:04:42;;;;;;;33.83;12.82;;;;;;;;;;5049425;28;20045;-63
2021/10/28 22:26:07;;;;;;;39.92;17.17;;;;;;;;;;5049075;28;20091;-63
2021/10/28 22:28:34;;;;;;;54.63;17.92;;;;;;;;;;5048884;28;20036;-63
2021/10/28 22:31:00;;;;;;;36.60;14.02;;;;;;;;;;5049514;28;20021;-63
2021/10/28 22:33:26;;;;;;;41.38;15.82;;;;;;;;;;5040620;28;20382;-64
2021/10/28 22:35:56;;;;;;;54.15;19.40;;;;;;;;;;5050826;28;20052;-63
2021/10/28 22:38:28;;;;;;;32.10;12.35;;;;;;;;;;5049109;28;20040;-63
2021/10/28 22:40:54;;;;;;;27.73;10.70;;;;;;;;;;5048843;28;20117;-64
2021/10/28 22:43:20;;;;;;;30.08;11.50;;;;;;;;;;5048809;28;20159;-64
2021/10/28 22:45:47;;;;;;;35.28;13.93;;;;;;;;;;5049073;28;20025;-63
2021/10/28 22:48:14;;;;;;;31.60;12.80;;;;;;;;;;5051027;28;20393;-63
2021/10/28 22:50:42;;;;;;;29.25;11.68;;;;;;;;;;5050651;28;20028;-64
2021/10/28 22:53:08;;;;;;;30.75;12.50;;;;;;;;;;5052390;28;20480;-63
2021/10/28 22:55:40;;;;;;;38.22;14.27;;;;;;;;;;5047810;28;20071;-63
2021/10/28 23:21:14;;;;;;;25.02;10.48;;;;;;;;;;5050345;28;20075;-64
2021/10/28 23:23:40;;;;;;;25.13;10.60;;;;;;;;;;5051402;28;20467;-63
2021/10/28 23:26:06;;;;;;;23.40;10.15;;;;;;;;;;5047656;28;20061;-63
2021/10/28 23:28:32;;;;;;;24.45;9.23;;;;;;;;;;5046975;28;20024;-63
2021/10/28 23:30:58;;;;;;;20.98;8.73;;;;;;;;;;5048112;28;20025;-63
2021/10/28 23:33:26;;;;;;;27.40;10.57;;;;;;;;;;5048806;28;20046;-63
2021/10/28 23:35:52;;;;;;;22.85;9.18;;;;;;;;;;5051225;28;20021;-63
2021/10/28 23:38:18;;;;;;;19.13;8.48;;;;;;;;;;5047776;28;20021;-63
2021/10/28 23:40:44;;;;;;;17.52;8.48;;;;;;;;;;5047849;28;20389;-63
2021/10/28 23:43:10;;;;;;;22.05;9.68;;;;;;;;;;5048041;28;20084;-63
2021/10/28 23:45:36;;;;;;;21.13;9.70;;;;;;;;;;5047464;28;20026;-63
2021/10/28 23:48:02;;;;;;;21.38;8.82;;;;;;;;;;5050671;28;20025;-63
2021/10/28 23:50:28;;;;;;;23.60;8.57;;;;;;;;;;5048597;28;20158;-63
2021/10/28 23:52:54;;;;;;;16.75;7.15;;;;;;;;;;5047665;28;20064;-63
2021/10/28 23:55:20;;;;;;;18.02;7.53;;;;;;;;;;5047797;28;20107;-63
2021/10/28 23:57:46;;;;;;;17.13;7.30;;;;;;;;;;5047738;28;20018;-63
